createdAt,value
2023-05-22T00:00:18.175Z,99.90
2023-05-22T00:02:45.255Z,99.90
2023-05-22T00:05:13.671Z,99.90
2023-05-22T00:07:41.895Z,99.90
2023-05-22T00:10:09.321Z,99.90
2023-05-22T00:12:36.193Z,99.90
2023-05-22T00:15:03.986Z,99.90
2023-05-22T00:17:31.062Z,99.90
2023-05-22T00:20:07.114Z,99.90
2023-05-22T00:22:37.600Z,99.90
2023-05-22T00:25:05.484Z,99.90
2023-05-22T00:27:33.143Z,99.90
2023-05-22T00:30:00.038Z,99.90
2023-05-22T00:32:27.427Z,99.90
2023-05-22T00:34:54.348Z,99.90
2023-05-22T00:37:21.182Z,99.90
2023-05-22T00:39:48.754Z,99.90
2023-05-22T00:42:15.781Z,99.90
2023-05-22T00:44:42.714Z,99.90
2023-05-22T00:47:09.704Z,99.90
2023-05-22T00:49:36.621Z,99.90
2023-05-22T00:52:03.875Z,99.90
2023-05-22T00:54:32.492Z,99.90
2023-05-22T00:57:01.428Z,99.90
2023-05-22T00:59:29.088Z,99.90
2023-05-22T01:01:57.157Z,99.90
2023-05-22T01:04:25.356Z,99.90
2023-05-22T01:06:53.682Z,99.90
2023-05-22T01:09:20.677Z,99.90
2023-05-22T01:12:00.493Z,99.90
2023-05-22T01:14:44.792Z,99.90
2023-05-22T01:17:25.957Z,99.90
2023-05-22T01:20:24.391Z,99.90
2023-05-22T01:23:14.108Z,99.90
2023-05-22T01:26:02.857Z,99.90
2023-05-22T01:29:03.924Z,99.90
2023-05-22T01:31:34.355Z,99.90
2023-05-22T01:34:03.355Z,99.90
2023-05-22T01:36:35.333Z,99.90
2023-05-22T01:39:06.173Z,99.90
2023-05-22T01:41:34.130Z,99.90
2023-05-22T01:44:02.093Z,99.90
2023-05-22T01:46:30.278Z,99.90
2023-05-22T01:48:58.224Z,99.90
2023-05-22T01:51:28.164Z,99.90
2023-05-22T01:54:07.624Z,99.90
2023-05-22T01:56:43.949Z,99.90
2023-05-22T01:59:15.694Z,99.90
2023-05-22T02:01:43.603Z,99.90
2023-05-22T02:04:12.137Z,99.90
2023-05-22T02:06:39.616Z,99.90
2023-05-22T02:09:08.619Z,99.90
2023-05-22T02:11:44.809Z,99.90
2023-05-22T02:14:13.437Z,99.90
2023-05-22T02:16:47.589Z,99.90
2023-05-22T02:19:15.435Z,99.90
2023-05-22T02:21:42.770Z,99.90
2023-05-22T02:24:09.799Z,99.90
2023-05-22T02:26:37.784Z,99.90
2023-05-22T02:29:04.854Z,99.90
2023-05-22T02:31:31.926Z,99.90
2023-05-22T02:33:59.143Z,99.90
2023-05-22T02:36:26.412Z,99.90
2023-05-22T02:38:55.614Z,99.90
2023-05-22T02:41:23.309Z,99.90
2023-05-22T02:43:50.540Z,99.90
2023-05-22T02:46:17.628Z,99.90
2023-05-22T02:48:45.510Z,99.90
2023-05-22T02:51:12.799Z,99.90
2023-05-22T02:53:44.115Z,99.90
2023-05-22T02:56:12.300Z,99.90
2023-05-22T02:58:39.803Z,99.90
2023-05-22T03:01:09.017Z,99.90
2023-05-22T03:03:36.933Z,99.90
2023-05-22T03:06:04.282Z,99.90
2023-05-22T03:08:32.927Z,99.90
2023-05-22T03:11:01.737Z,99.90
2023-05-22T03:13:28.580Z,99.90
2023-05-22T03:15:55.597Z,99.90
2023-05-22T03:18:25.941Z,99.90
2023-05-22T03:20:54.388Z,99.90
2023-05-22T03:23:21.286Z,99.90
2023-05-22T03:25:48.455Z,99.90
2023-05-22T03:28:16.056Z,99.90
2023-05-22T03:30:43.483Z,99.90
2023-05-22T03:33:21.454Z,99.90
2023-05-22T03:35:48.898Z,99.90
2023-05-22T03:38:15.901Z,99.90
2023-05-22T03:40:42.833Z,99.90
2023-05-22T03:43:10.714Z,99.90
2023-05-22T03:45:38.767Z,99.90
2023-05-22T03:48:06.117Z,99.90
2023-05-22T03:50:34.768Z,99.90
2023-05-22T03:53:06.036Z,99.90
2023-05-22T03:55:33.075Z,99.90
2023-05-22T03:57:59.856Z,99.90
2023-05-22T04:00:27.177Z,99.90
2023-05-22T04:02:54.801Z,99.90
2023-05-22T04:05:24.692Z,99.90
2023-05-22T04:07:51.692Z,99.90
2023-05-22T04:10:22.461Z,99.90
2023-05-22T04:12:50.850Z,99.90
2023-05-22T04:15:17.882Z,99.90
2023-05-22T04:17:44.965Z,99.90
2023-05-22T04:20:12.288Z,99.90
2023-05-22T04:22:39.498Z,99.90
2023-05-22T04:25:06.696Z,99.90
2023-05-22T04:27:34.228Z,99.90
2023-05-22T04:30:02.923Z,99.90
2023-05-22T04:32:29.979Z,99.90
2023-05-22T04:34:58.393Z,99.90
2023-05-22T04:37:26.502Z,99.90
2023-05-22T04:39:53.724Z,99.90
2023-05-22T04:42:22.491Z,99.90
2023-05-22T04:44:49.351Z,99.90
2023-05-22T04:47:17.761Z,99.90
2023-05-22T04:49:45.708Z,99.90
2023-05-22T04:52:12.763Z,99.90
2023-05-22T04:54:56.121Z,99.90
2023-05-22T04:57:25.530Z,99.90
2023-05-22T04:59:54.461Z,99.90
2023-05-22T05:02:21.570Z,99.90
2023-05-22T05:04:48.931Z,99.90
2023-05-22T05:07:19.480Z,99.90
2023-05-22T05:09:46.809Z,99.90
2023-05-22T05:12:16.872Z,99.90
2023-05-22T05:14:46.424Z,99.90
2023-05-22T05:17:15.899Z,99.90
2023-05-22T05:19:43.322Z,99.90
2023-05-22T05:22:10.461Z,99.90
2023-05-22T05:24:38.223Z,99.90
2023-05-22T05:27:05.979Z,99.90
2023-05-22T05:29:33.093Z,99.90
2023-05-22T05:32:08.133Z,99.90
2023-05-22T05:34:47.695Z,99.90
2023-05-22T05:37:25.097Z,99.90
2023-05-22T05:39:54.753Z,99.90
2023-05-22T05:42:21.626Z,99.90
2023-05-22T05:44:49.426Z,99.90
2023-05-22T05:47:17.794Z,99.90
2023-05-22T05:49:44.837Z,99.90
2023-05-22T05:52:12.446Z,99.90
2023-05-22T05:54:39.484Z,99.90
2023-05-22T05:57:14.688Z,99.90
2023-05-22T05:59:41.618Z,99.90
2023-05-22T06:02:41.870Z,99.90
2023-05-22T06:05:20.082Z,99.90
2023-05-22T06:07:50.083Z,99.90
2023-05-22T06:10:18.617Z,99.90
2023-05-22T06:12:57.942Z,99.90
2023-05-22T06:15:28.890Z,99.90
2023-05-22T06:17:56.323Z,99.90
2023-05-22T06:20:25.094Z,99.90
2023-05-22T06:22:52.114Z,99.90
2023-05-22T06:25:20.223Z,99.90
2023-05-22T06:27:48.474Z,99.90
2023-05-22T06:30:28.205Z,99.90
2023-05-22T06:33:04.656Z,99.90
2023-05-22T06:35:31.752Z,99.90
2023-05-22T06:37:59.008Z,99.90
2023-05-22T06:40:26.508Z,99.90
2023-05-22T06:42:59.297Z,99.90
2023-05-22T06:45:39.085Z,99.90
2023-05-22T06:48:26.268Z,99.90
2023-05-22T06:51:19.666Z,99.90
2023-05-22T06:53:51.432Z,99.90
2023-05-22T06:56:25.172Z,99.90
2023-05-22T06:59:00.275Z,99.90
2023-05-22T07:01:49.908Z,99.90
2023-05-22T07:04:26.131Z,99.90
2023-05-22T07:07:00.694Z,99.90
2023-05-22T07:09:28.590Z,99.90
2023-05-22T07:11:55.582Z,99.90
2023-05-22T07:14:23.068Z,99.90
2023-05-22T07:16:51.188Z,99.90
2023-05-22T07:19:24.812Z,99.90
2023-05-22T07:21:54.168Z,99.90
2023-05-22T07:24:22.152Z,99.90
2023-05-22T07:26:50.083Z,99.90
2023-05-22T07:29:18.244Z,99.90
2023-05-22T07:31:48.540Z,99.90
2023-05-22T07:34:16.622Z,99.90
2023-05-22T07:36:44.797Z,99.90
2023-05-22T07:39:11.691Z,99.90
2023-05-22T07:41:41.030Z,99.90
2023-05-22T07:44:11.124Z,99.90
2023-05-22T07:46:39.023Z,99.90
2023-05-22T07:49:12.028Z,99.90
2023-05-22T07:51:41.651Z,99.90
2023-05-22T07:54:10.171Z,99.90
2023-05-22T07:56:43.390Z,99.90
2023-05-22T07:59:12.088Z,99.90
2023-05-22T08:01:40.209Z,99.90
2023-05-22T08:04:07.637Z,99.90
2023-05-22T08:06:37.740Z,99.90
2023-05-22T08:09:05.072Z,99.90
2023-05-22T08:11:32.682Z,99.90
2023-05-22T08:13:59.533Z,99.90
2023-05-22T08:16:26.429Z,99.90
2023-05-22T08:18:53.390Z,99.90
2023-05-22T08:21:20.328Z,99.90
2023-05-22T08:23:47.189Z,99.90
2023-05-22T08:26:15.183Z,99.10
2023-05-22T08:28:44.236Z,98.80
2023-05-22T08:31:11.949Z,98.50
2023-05-22T08:33:39.834Z,97.80
2023-05-22T08:36:06.832Z,97.40
2023-05-22T08:38:34.107Z,97.00
2023-05-22T08:41:01.138Z,96.70
2023-05-22T08:43:28.684Z,95.80
2023-05-22T08:46:06.190Z,95.80
2023-05-22T08:48:33.584Z,95.40
2023-05-22T08:51:06.001Z,94.80
2023-05-22T08:53:36.938Z,94.30
2023-05-22T08:56:07.023Z,93.10
2023-05-22T08:58:35.952Z,92.40
2023-05-22T09:01:04.875Z,91.50
2023-05-22T09:03:35.191Z,90.60
2023-05-22T09:06:03.280Z,88.10
2023-05-22T09:08:30.130Z,86.50
2023-05-22T09:10:57.108Z,85.10
2023-05-22T09:13:29.274Z,84.10
2023-05-22T09:16:14.909Z,82.40
2023-05-22T09:18:45.328Z,82.30
2023-05-22T09:21:29.717Z,81.60
2023-05-22T09:24:01.472Z,80.10
2023-05-22T09:26:29.563Z,79.60
2023-05-22T09:28:58.919Z,79.00
2023-05-22T09:31:26.150Z,78.00
2023-05-22T09:33:54.976Z,76.90
2023-05-22T09:36:22.154Z,76.20
2023-05-22T09:38:49.177Z,76.00
2023-05-22T09:41:22.514Z,75.90
2023-05-22T09:43:52.526Z,75.30
2023-05-22T09:46:19.566Z,75.00
2023-05-22T09:48:52.442Z,74.10
2023-05-22T09:51:26.623Z,73.50
2023-05-22T09:54:01.456Z,71.80
2023-05-22T09:56:38.592Z,71.20
2023-05-22T09:59:09.618Z,71.50
2023-05-22T10:01:38.665Z,70.80
2023-05-22T10:04:08.829Z,71.60
2023-05-22T10:06:37.783Z,71.50
2023-05-22T10:09:09.778Z,74.30
2023-05-22T10:11:37.964Z,74.60
2023-05-22T10:14:05.568Z,75.20
2023-05-22T10:16:36.394Z,76.30
2023-05-22T10:19:03.611Z,75.50
2023-05-22T10:21:32.034Z,75.50
2023-05-22T10:24:01.799Z,74.20
2023-05-22T10:26:29.188Z,74.20
2023-05-22T10:29:17.987Z,74.60
2023-05-22T10:32:09.404Z,75.30
2023-05-22T10:35:21.241Z,75.20
2023-05-22T10:37:54.879Z,74.70
2023-05-22T10:40:29.207Z,74.20
2023-05-22T10:43:00.890Z,73.00
2023-05-22T10:45:31.981Z,73.70
2023-05-22T10:48:06.653Z,73.80
2023-05-22T10:50:34.613Z,73.00
2023-05-22T10:53:24.664Z,73.60
2023-05-22T10:55:52.219Z,73.30
2023-05-22T10:58:37.348Z,72.90
2023-05-22T11:01:18.297Z,73.10
2023-05-22T11:03:51.060Z,72.40
2023-05-22T11:06:33.420Z,71.50
2023-05-22T11:09:06.993Z,71.30
2023-05-22T11:11:33.986Z,70.60
2023-05-22T11:14:04.448Z,69.70
2023-05-22T11:16:33.542Z,69.20
2023-05-22T11:19:21.861Z,68.80
2023-05-22T11:21:49.982Z,68.00
2023-05-22T11:24:20.624Z,69.30
2023-05-22T11:27:02.457Z,69.70
2023-05-22T11:29:30.684Z,71.20
2023-05-22T11:31:59.329Z,69.20
2023-05-22T11:34:26.858Z,69.00
2023-05-22T11:36:59.793Z,68.40
2023-05-22T11:39:27.336Z,68.60
2023-05-22T11:41:54.649Z,68.10
2023-05-22T11:44:21.764Z,66.80
2023-05-22T11:46:48.838Z,66.10
2023-05-22T11:49:17.287Z,66.70
2023-05-22T11:51:45.290Z,66.20
2023-05-22T11:54:12.266Z,66.00
2023-05-22T11:56:39.221Z,65.20
2023-05-22T11:59:06.123Z,65.90
2023-05-22T12:01:33.327Z,64.60
2023-05-22T12:04:00.309Z,64.80
2023-05-22T12:06:27.508Z,65.20
2023-05-22T12:09:12.093Z,64.30
2023-05-22T12:11:55.761Z,64.00
2023-05-22T12:14:34.151Z,63.90
2023-05-22T12:17:04.465Z,63.10
2023-05-22T12:19:32.764Z,63.00
2023-05-22T12:22:00.435Z,63.70
2023-05-22T12:24:38.483Z,63.50
2023-05-22T12:27:09.719Z,62.50
2023-05-22T12:29:38.436Z,61.90
2023-05-22T12:32:09.172Z,61.40
2023-05-22T12:34:43.078Z,60.80
2023-05-22T12:37:21.158Z,60.60
2023-05-22T12:40:06.126Z,60.20
2023-05-22T12:42:33.078Z,59.80
2023-05-22T12:45:00.673Z,60.30
2023-05-22T12:47:28.150Z,60.00
2023-05-22T12:50:01.367Z,60.00
2023-05-22T12:52:28.409Z,60.10
2023-05-22T12:54:55.558Z,59.50
2023-05-22T12:57:22.513Z,60.20
2023-05-22T12:59:49.515Z,59.60
2023-05-22T13:02:18.610Z,59.70
2023-05-22T13:04:49.721Z,60.20
2023-05-22T13:07:16.716Z,59.70
2023-05-22T13:09:45.173Z,59.80
2023-05-22T13:12:12.284Z,60.20
2023-05-22T13:14:40.543Z,60.20
2023-05-22T13:17:08.223Z,61.00
2023-05-22T13:19:35.309Z,62.30
2023-05-22T13:22:02.280Z,63.90
2023-05-22T13:24:30.426Z,64.00
2023-05-22T13:26:57.393Z,64.00
2023-05-22T13:29:24.741Z,64.30
2023-05-22T13:31:51.736Z,64.50
2023-05-22T13:34:18.752Z,65.20
2023-05-22T13:36:46.644Z,64.30
2023-05-22T13:39:13.567Z,64.40
2023-05-22T13:41:40.748Z,64.70
2023-05-22T13:44:07.889Z,64.10
2023-05-22T13:46:34.991Z,63.70
2023-05-22T13:49:02.111Z,64.20
2023-05-22T13:51:29.262Z,63.60
2023-05-22T13:53:56.136Z,63.30
2023-05-22T13:56:23.765Z,62.90
2023-05-22T13:58:50.790Z,63.00
2023-05-22T14:01:17.758Z,61.40
2023-05-22T14:03:44.736Z,61.30
2023-05-22T14:06:11.702Z,61.40
2023-05-22T14:08:38.896Z,60.80
2023-05-22T14:11:06.075Z,59.60
2023-05-22T14:13:33.120Z,59.40
2023-05-22T14:16:00.198Z,59.00
2023-05-22T14:18:27.167Z,57.80
2023-05-22T14:20:54.235Z,58.00
2023-05-22T14:23:21.303Z,58.20
2023-05-22T14:25:48.308Z,58.40
2023-05-22T14:28:16.013Z,57.60
2023-05-22T14:30:43.022Z,57.20
2023-05-22T14:33:09.940Z,57.00
2023-05-22T14:35:36.850Z,57.60
2023-05-22T14:38:04.007Z,57.90
2023-05-22T14:40:30.978Z,57.40
2023-05-22T14:42:57.947Z,56.70
2023-05-22T14:45:24.936Z,57.00
2023-05-22T14:47:53.816Z,56.60
2023-05-22T14:50:21.125Z,56.50
2023-05-22T14:52:51.634Z,56.60
2023-05-22T14:55:19.380Z,56.50
2023-05-22T14:57:49.158Z,56.20
2023-05-22T15:00:19.431Z,56.00
2023-05-22T15:02:46.727Z,56.00
2023-05-22T15:05:13.982Z,55.70
2023-05-22T15:07:44.407Z,55.30
2023-05-22T15:10:13.493Z,55.40
2023-05-22T15:12:40.764Z,55.00
2023-05-22T15:15:08.290Z,54.80
2023-05-22T15:17:35.632Z,55.80
2023-05-22T15:20:12.992Z,56.30
2023-05-22T15:22:40.575Z,57.00
2023-05-22T15:25:09.677Z,58.10
2023-05-22T15:27:38.541Z,60.20
2023-05-22T15:30:09.541Z,63.90
2023-05-22T15:32:38.055Z,65.30
2023-05-22T15:35:06.875Z,65.40
2023-05-22T15:37:34.178Z,66.50
2023-05-22T15:40:02.395Z,67.50
2023-05-22T15:42:30.547Z,69.20
2023-05-22T15:44:59.555Z,70.40
2023-05-22T15:47:27.297Z,71.30
2023-05-22T15:49:55.404Z,71.80
2023-05-22T15:52:25.403Z,72.40
2023-05-22T15:54:53.971Z,72.70
2023-05-22T15:57:23.255Z,72.50
2023-05-22T15:59:51.164Z,72.80
2023-05-22T16:02:19.009Z,72.80
2023-05-22T16:04:46.139Z,73.00
2023-05-22T16:07:12.973Z,73.70
2023-05-22T16:09:40.486Z,74.40
2023-05-22T16:12:07.909Z,75.00
2023-05-22T16:14:35.110Z,75.40
2023-05-22T16:17:01.940Z,75.60
2023-05-22T16:19:28.845Z,76.80
2023-05-22T16:21:55.926Z,79.00
2023-05-22T16:24:22.739Z,80.50
2023-05-22T16:26:49.682Z,79.50
2023-05-22T16:29:23.437Z,80.80
2023-05-22T16:31:54.122Z,80.90
2023-05-22T16:34:24.419Z,85.30
2023-05-22T16:36:51.957Z,87.40
2023-05-22T16:39:24.818Z,91.00
2023-05-22T16:42:02.835Z,91.40
2023-05-22T16:44:36.164Z,92.60
2023-05-22T16:47:11.614Z,96.60
2023-05-22T16:49:56.181Z,99.90
2023-05-22T16:52:32.675Z,99.90
2023-05-22T16:55:27.185Z,99.90
2023-05-22T16:58:06.328Z,99.90
2023-05-22T17:00:35.912Z,99.90
2023-05-22T17:03:04.197Z,99.90
2023-05-22T17:05:31.667Z,99.90
2023-05-22T17:08:03.409Z,99.90
2023-05-22T17:10:35.120Z,99.90
2023-05-22T17:13:02.102Z,99.90
2023-05-22T17:15:29.195Z,99.90
2023-05-22T17:17:56.319Z,99.90
2023-05-22T17:20:23.374Z,99.90
2023-05-22T17:22:51.015Z,99.90
2023-05-22T17:25:17.833Z,99.90
2023-05-22T17:27:44.876Z,99.90
2023-05-22T17:30:11.965Z,99.90
2023-05-22T17:32:39.015Z,99.90
2023-05-22T17:35:06.924Z,99.90
2023-05-22T17:37:40.669Z,99.90
2023-05-22T17:40:11.212Z,99.90
2023-05-22T17:42:38.370Z,99.90
2023-05-22T17:45:06.070Z,99.90
2023-05-22T17:47:33.140Z,99.90
2023-05-22T17:50:00.693Z,99.90
2023-05-22T17:52:31.264Z,99.90
2023-05-22T17:55:01.707Z,99.90
2023-05-22T17:57:28.765Z,99.90
2023-05-22T17:59:55.574Z,99.90
2023-05-22T18:02:23.101Z,99.90
2023-05-22T18:04:49.978Z,99.90
2023-05-22T18:07:17.442Z,99.90
2023-05-22T18:09:44.281Z,99.90
2023-05-22T18:12:30.240Z,99.90
2023-05-22T18:14:57.747Z,99.90
2023-05-22T18:17:24.635Z,99.90
2023-05-22T18:19:51.545Z,99.90
2023-05-22T18:22:18.677Z,99.90
2023-05-22T18:24:45.542Z,99.90
2023-05-22T18:27:12.480Z,99.90
2023-05-22T18:29:40.157Z,99.90
2023-05-22T18:32:09.467Z,99.90
2023-05-22T18:34:37.808Z,99.90
2023-05-22T18:37:08.039Z,99.90
2023-05-22T18:39:35.935Z,99.90
2023-05-22T18:42:05.829Z,99.90
2023-05-22T18:44:32.718Z,99.90
2023-05-22T18:46:59.742Z,99.90
2023-05-22T18:49:27.170Z,99.90
2023-05-22T18:51:57.071Z,99.90
2023-05-22T18:54:31.992Z,99.90
2023-05-22T18:57:02.202Z,99.90
2023-05-22T18:59:29.186Z,99.90
2023-05-22T19:02:01.417Z,99.90
2023-05-22T19:04:35.391Z,99.90
2023-05-22T19:07:09.689Z,99.90
2023-05-22T19:09:39.755Z,99.90
2023-05-22T19:12:16.001Z,99.90
2023-05-22T19:14:43.455Z,99.90
2023-05-22T19:17:11.103Z,99.90
2023-05-22T19:19:40.839Z,99.90
2023-05-22T19:22:10.440Z,99.90
2023-05-22T19:24:37.414Z,99.90
2023-05-22T19:27:12.451Z,99.90
2023-05-22T19:29:42.317Z,99.90
2023-05-22T19:32:09.404Z,99.90
2023-05-22T19:34:37.832Z,99.90
2023-05-22T19:37:05.554Z,99.90
2023-05-22T19:39:32.565Z,99.90
2023-05-22T19:42:08.629Z,99.90
2023-05-22T19:44:37.967Z,99.90
2023-05-22T19:47:08.908Z,99.90
2023-05-22T19:49:44.306Z,99.90
2023-05-22T19:52:12.003Z,99.90
2023-05-22T19:54:41.800Z,99.90
2023-05-22T19:57:15.220Z,99.90
2023-05-22T19:59:59.771Z,99.90
2023-05-22T20:02:38.078Z,99.90
2023-05-22T20:05:18.342Z,99.90
2023-05-22T20:07:54.196Z,99.90
2023-05-22T20:10:21.758Z,99.90
2023-05-22T20:12:48.902Z,99.90
2023-05-22T20:15:18.591Z,99.90
2023-05-22T20:17:52.078Z,99.90
2023-05-22T20:20:20.250Z,99.90
2023-05-22T20:22:47.547Z,99.90
2023-05-22T20:25:14.860Z,99.90
2023-05-22T20:27:41.888Z,99.90
2023-05-22T20:30:16.795Z,99.90
2023-05-22T20:32:48.267Z,99.90
2023-05-22T20:35:22.394Z,99.90
2023-05-22T20:37:50.649Z,99.90
2023-05-22T20:40:18.621Z,99.90
2023-05-22T20:42:46.504Z,99.90
2023-05-22T20:45:17.987Z,99.90
2023-05-22T20:47:48.177Z,99.90
2023-05-22T20:50:18.752Z,99.90
2023-05-22T20:52:48.084Z,99.90
2023-05-22T20:55:30.051Z,99.90
2023-05-22T20:58:00.288Z,99.90
2023-05-22T21:00:30.143Z,99.90
2023-05-22T21:03:00.203Z,99.90
2023-05-22T21:05:27.712Z,99.90
2023-05-22T21:07:55.748Z,99.90
2023-05-22T21:10:29.047Z,99.90
2023-05-22T21:12:56.298Z,99.90
2023-05-22T21:15:26.802Z,99.90
2023-05-22T21:17:56.961Z,99.90
2023-05-22T21:20:27.567Z,99.90
2023-05-22T21:22:55.879Z,99.90
2023-05-22T21:25:43.596Z,99.90
2023-05-22T21:28:11.096Z,99.90
2023-05-22T21:30:38.771Z,99.90
2023-05-22T21:33:06.106Z,99.90
2023-05-22T21:35:34.136Z,99.90
2023-05-22T21:38:04.451Z,99.90
2023-05-22T21:40:31.975Z,99.90
2023-05-22T21:43:00.335Z,99.90
2023-05-22T21:45:28.186Z,99.90
2023-05-22T21:48:02.207Z,99.90
2023-05-22T21:50:30.630Z,99.90
2023-05-22T21:52:59.113Z,99.90
2023-05-22T21:55:27.253Z,99.90
2023-05-22T21:57:59.050Z,99.90
2023-05-22T22:00:30.965Z,99.90
2023-05-22T22:02:59.121Z,99.90
2023-05-22T22:05:27.578Z,99.90
2023-05-22T22:07:54.493Z,99.90
2023-05-22T22:10:21.450Z,99.90
2023-05-22T22:12:48.703Z,99.90
2023-05-22T22:15:17.100Z,99.90
2023-05-22T22:17:44.033Z,99.90
2023-05-22T22:20:11.506Z,99.90
2023-05-22T22:22:39.892Z,99.90
2023-05-22T22:25:07.050Z,99.90
2023-05-22T22:27:33.916Z,99.90
2023-05-22T22:30:00.713Z,99.90
2023-05-22T22:32:27.490Z,99.90
2023-05-22T22:34:55.218Z,99.90
2023-05-22T22:37:22.341Z,99.90
2023-05-22T22:39:49.511Z,99.90
2023-05-22T22:42:16.694Z,99.90
2023-05-22T22:44:44.353Z,99.90
2023-05-22T22:47:11.360Z,99.90
2023-05-22T22:49:38.445Z,99.90
2023-05-22T22:52:05.649Z,99.90
2023-05-22T22:54:32.762Z,99.90
2023-05-22T22:56:59.957Z,99.90
2023-05-22T22:59:26.758Z,99.90
2023-05-22T23:01:53.987Z,99.90
2023-05-22T23:04:21.223Z,99.90
2023-05-22T23:06:48.421Z,99.90
2023-05-22T23:09:15.662Z,99.90
2023-05-22T23:11:42.654Z,99.90
2023-05-22T23:14:10.157Z,99.90
2023-05-22T23:16:40.742Z,99.90
2023-05-22T23:19:09.060Z,99.90
2023-05-22T23:21:36.764Z,99.90
2023-05-22T23:24:05.875Z,99.90
2023-05-22T23:26:33.427Z,99.90
2023-05-22T23:29:01.059Z,99.90
2023-05-22T23:31:30.508Z,99.90
2023-05-22T23:33:58.485Z,99.90
2023-05-22T23:36:25.910Z,99.90
2023-05-22T23:38:53.917Z,99.90
2023-05-22T23:41:20.691Z,99.90
2023-05-22T23:43:47.551Z,99.90
2023-05-22T23:46:14.861Z,99.90
2023-05-22T23:48:42.568Z,99.90
2023-05-22T23:51:16.717Z,99.90
2023-05-22T23:53:44.770Z,99.90
2023-05-22T23:56:11.692Z,99.90
2023-05-22T23:58:38.723Z,99.90
